Aérodrome :
LOGIN :

S'inscrire | Disclaimer

   EN    FR    IT 

 










Légende :    VFR   VFR Marginal   IFR   IFR Intensif   IFR Très Intensif
Visi : 
Plafond : 
>= 8 km
>= 3000ft
5 à 8 km
1000 à 3000 ft
1500m à 5 km
500 à 1000 ft
800 à 1500m
200 à 500 ft
< 800m
< 200 ft
Symboles :   Orages  Brouillard  Fortes neiges  Fortes précipitations  Vent > 20 kt
SIGMETs :   Divers  Orages  Givrage  Turbulence  Onde Orograph.  Cendres Volcan.







- Altitude de l'aérodrome : 183 ft
- Code IATA : HAJ


EDDV - Hanover/Langenhagen Int.

DERNIER METAR :
  • 101950Z 28016G26KT 250V310 9999 -SHRA SCT014CB 04/02 Q1015 TEMPO 4500 SHRA BKN012

METARs EXPIRÉS :
  • 101920Z 27015KT 9999 SCT015CB 04/02 Q1015 TEMPO 28020G30KT
  • 101850Z 28013KT 9999 -SHRA SCT013CB SCT035 04/02 Q1015 TEMPO 28020G30KT
  • 101820Z 28016KT 9999 -SHRA SCT013CB SCT035 04/02 Q1015 TEMPO 28020G30KT
  • 101750Z 28017KT 240V310 9999 -SHRA FEW013CB BKN017 04/02 Q1015 TEMPO 28020G30KT
  • 101720Z 27017G27KT 240V300 9999 FEW013 04/02 Q1015 NOSIG

TAF TAF EDDV
Valide du 10 à 18h jusqu'au 11 à 18h UTC


101700Z 1018/1118 28015KT 9999 SCT020
TEMPO 1018/1102 29020G30KT SHRA BKN014CB
BECMG 1103/1105 29010KT
BECMG 1114/1116 30005KT
Pas de NOTAMs connus pour ce terrain.



MET'MAP, la Météo Aéronautique d'un coup d'oeil ! - Copyright ORBIFLY Décembre 2007 - Disclaimer

ORBIFLY MET'MAP TEAM :

Programmation & Développement : Alexandra Zaïnal
Conception & Développement : Baudouin d'Aumeries
Co-Programmation & Développement : Marc-Olivier Méhu
Soutien technique & logistique : Manuel Goepfert

Contact : metmap@orbifly.com




SOURCES & CREDITS :

   NOAA